sensor_id;sensor_type;location;lat;lon;timestamp;pressure;altitude;pressure_sealevel;temperature;humidity
21011;BME280;10663;42.714;23.274;2022-08-01T00:00:08;94679.19;;;18.66;61.82
21011;BME280;10663;42.714;23.274;2022-08-01T00:01:39;94680.13;;;18.61;61.90
21011;BME280;10663;42.714;23.274;2022-08-01T00:03:10;94682.47;;;18.54;62.36
21011;BME280;10663;42.714;23.274;2022-08-01T00:04:41;94678.06;;;18.58;62.49
21011;BME280;10663;42.714;23.274;2022-08-01T00:06:12;94683.25;;;18.55;62.33
21011;BME280;10663;42.714;23.274;2022-08-01T00:07:43;94680.41;;;18.51;62.33
21011;BME280;10663;42.714;23.274;2022-08-01T00:09:14;94683.28;;;18.63;61.72
21011;BME280;10663;42.714;23.274;2022-08-01T00:10:45;94686.28;;;18.62;61.70
21011;BME280;10663;42.714;23.274;2022-08-01T00:12:16;94689.75;;;18.62;61.49
21011;BME280;10663;42.714;23.274;2022-08-01T00:13:47;94696.06;;;18.58;62.00
21011;BME280;10663;42.714;23.274;2022-08-01T00:15:18;94689.75;;;18.62;62.73
21011;BME280;10663;42.714;23.274;2022-08-01T00:16:49;94694.88;;;18.33;64.65
21011;BME280;10663;42.714;23.274;2022-08-01T00:18:20;94694.97;;;17.93;67.36
21011;BME280;10663;42.714;23.274;2022-08-01T00:19:51;94693.78;;;17.77;68.28
21011;BME280;10663;42.714;23.274;2022-08-01T00:21:22;94701.09;;;17.54;69.19
21011;BME280;10663;42.714;23.274;2022-08-01T00:22:53;94697.63;;;17.32;69.99
21011;BME280;10663;42.714;23.274;2022-08-01T00:24:24;94701.06;;;17.24;70.47
21011;BME280;10663;42.714;23.274;2022-08-01T00:25:55;94694.25;;;17.17;71.68
21011;BME280;10663;42.714;23.274;2022-08-01T00:27:26;94698.34;;;17.15;71.93
21011;BME280;10663;42.714;23.274;2022-08-01T00:28:57;94706.38;;;16.93;72.47
21011;BME280;10663;42.714;23.274;2022-08-01T00:30:28;94705.84;;;16.68;73.38
21011;BME280;10663;42.714;23.274;2022-08-01T00:31:58;94707.88;;;16.63;74.06
21011;BME280;10663;42.714;23.274;2022-08-01T00:33:29;94709.06;;;16.43;74.96
21011;BME280;10663;42.714;23.274;2022-08-01T00:35:00;94709.91;;;16.16;76.36
21011;BME280;10663;42.714;23.274;2022-08-01T00:36:31;94723.28;;;16.16;75.94
21011;BME280;10663;42.714;23.274;2022-08-01T00:38:02;94710.41;;;16.04;76.40
21011;BME280;10663;42.714;23.274;2022-08-01T00:39:33;94716.66;;;16.00;76.95
21011;BME280;10663;42.714;23.274;2022-08-01T00:41:04;94710.53;;;15.99;76.73
21011;BME280;10663;42.714;23.274;2022-08-01T00:42:35;94711.03;;;16.01;76.62
21011;BME280;10663;42.714;23.274;2022-08-01T00:44:05;94713.56;;;16.06;76.31
21011;BME280;10663;42.714;23.274;2022-08-01T00:45:36;94711.41;;;16.08;76.53
21011;BME280;10663;42.714;23.274;2022-08-01T00:47:07;94706.56;;;16.11;75.91
21011;BME280;10663;42.714;23.274;2022-08-01T00:48:38;94706.91;;;16.31;75.50
21011;BME280;10663;42.714;23.274;2022-08-01T00:50:10;94702.66;;;16.30;74.91
21011;BME280;10663;42.714;23.274;2022-08-01T00:51:41;94691.00;;;16.26;75.02
21011;BME280;10663;42.714;23.274;2022-08-01T00:53:12;94695.03;;;16.37;74.93
21011;BME280;10663;42.714;23.274;2022-08-01T00:54:43;94690.94;;;16.40;74.56
21011;BME280;10663;42.714;23.274;2022-08-01T00:56:14;94695.91;;;16.46;74.17
21011;BME280;10663;42.714;23.274;2022-08-01T00:57:45;94689.94;;;16.50;73.77
21011;BME280;10663;42.714;23.274;2022-08-01T00:59:17;94688.69;;;16.47;74.13
21011;BME280;10663;42.714;23.274;2022-08-01T01:00:48;94686.88;;;16.56;73.85
21011;BME280;10663;42.714;23.274;2022-08-01T01:02:19;94683.28;;;16.61;73.23
21011;BME280;10663;42.714;23.274;2022-08-01T01:03:51;94677.66;;;16.62;73.20
21011;BME280;10663;42.714;23.274;2022-08-01T01:05:23;94678.94;;;16.65;72.89
21011;BME280;10663;42.714;23.274;2022-08-01T01:08:35;94670.78;;;16.70;72.43
21011;BME280;10663;42.714;23.274;2022-08-01T01:10:17;94672.88;;;16.73;72.47
21011;BME280;10663;42.714;23.274;2022-08-01T01:12:01;94674.47;;;16.74;72.59
21011;BME280;10663;42.714;23.274;2022-08-01T01:13:35;94672.09;;;16.72;72.10
21011;BME280;10663;42.714;23.274;2022-08-01T01:15:10;94673.97;;;16.72;72.38
21011;BME280;10663;42.714;23.274;2022-08-01T01:16:44;94672.69;;;16.69;72.10
21011;BME280;10663;42.714;23.274;2022-08-01T01:18:17;94670.69;;;16.75;71.72
21011;BME280;10663;42.714;23.274;2022-08-01T01:19:54;94671.47;;;16.75;71.81
21011;BME280;10663;42.714;23.274;2022-08-01T01:27:35;94661.91;;;17.05;71.77
21011;BME280;10663;42.714;23.274;2022-08-01T01:29:35;94654.28;;;16.90;70.87
21011;BME280;10663;42.714;23.274;2022-08-01T01:31:10;94663.03;;;16.82;71.28
21011;BME280;10663;42.714;23.274;2022-08-01T01:32:46;94657.31;;;16.75;71.13
21011;BME280;10663;42.714;23.274;2022-08-01T01:34:21;94654.94;;;16.73;70.50
21011;BME280;10663;42.714;23.274;2022-08-01T01:35:59;94651.78;;;16.71;70.63
21011;BME280;10663;42.714;23.274;2022-08-01T01:37:33;94651.59;;;16.68;70.55
21011;BME280;10663;42.714;23.274;2022-08-01T01:39:05;94651.88;;;16.66;70.13
21011;BME280;10663;42.714;23.274;2022-08-01T01:40:38;94647.03;;;16.68;70.12
21011;BME280;10663;42.714;23.274;2022-08-01T01:42:10;94646.34;;;16.85;68.50
21011;BME280;10663;42.714;23.274;2022-08-01T01:43:42;94643.31;;;16.78;69.04
21011;BME280;10663;42.714;23.274;2022-08-01T01:45:14;94634.09;;;16.84;68.09
21011;BME280;10663;42.714;23.274;2022-08-01T01:46:47;94642.72;;;16.81;67.67
21011;BME280;10663;42.714;23.274;2022-08-01T01:48:20;94640.53;;;16.83;67.95
21011;BME280;10663;42.714;23.274;2022-08-01T01:49:53;94637.34;;;17.03;67.27
21011;BME280;10663;42.714;23.274;2022-08-01T01:51:27;94640.50;;;17.05;66.18
21011;BME280;10663;42.714;23.274;2022-08-01T01:52:59;94631.09;;;17.08;66.07
21011;BME280;10663;42.714;23.274;2022-08-01T01:54:36;94636.78;;;17.15;65.10
21011;BME280;10663;42.714;23.274;2022-08-01T01:56:08;94640.13;;;17.20;64.75
21011;BME280;10663;42.714;23.274;2022-08-01T01:57:41;94637.75;;;17.19;64.39
21011;BME280;10663;42.714;23.274;2022-08-01T01:59:15;94642.81;;;17.20;64.88
21011;BME280;10663;42.714;23.274;2022-08-01T02:00:51;94635.25;;;17.23;64.05
21011;BME280;10663;42.714;23.274;2022-08-01T02:02:23;94636.66;;;17.20;63.91
21011;BME280;10663;42.714;23.274;2022-08-01T02:03:56;94632.94;;;17.30;62.96
21011;BME280;10663;42.714;23.274;2022-08-01T02:05:28;94629.44;;;17.20;63.59
21011;BME280;10663;42.714;23.274;2022-08-01T02:07:00;94631.47;;;17.24;64.02
21011;BME280;10663;42.714;23.274;2022-08-01T02:08:32;94630.53;;;17.19;63.84
21011;BME280;10663;42.714;23.274;2022-08-01T02:10:06;94629.59;;;17.24;63.60
21011;BME280;10663;42.714;23.274;2022-08-01T02:11:39;94621.81;;;17.14;64.02
21011;BME280;10663;42.714;23.274;2022-08-01T02:13:11;94627.91;;;17.06;63.77
21011;BME280;10663;42.714;23.274;2022-08-01T02:14:42;94624.91;;;16.99;63.92
21011;BME280;10663;42.714;23.274;2022-08-01T02:16:16;94625.09;;;17.02;63.54
21011;BME280;10663;42.714;23.274;2022-08-01T02:17:49;94618.50;;;17.08;63.26
21011;BME280;10663;42.714;23.274;2022-08-01T02:19:21;94625.09;;;17.02;62.77
21011;BME280;10663;42.714;23.274;2022-08-01T02:20:54;94630.59;;;17.06;62.31
21011;BME280;10663;42.714;23.274;2022-08-01T02:22:28;94635.19;;;17.14;61.79
21011;BME280;10663;42.714;23.274;2022-08-01T02:25:57;94626.88;;;17.15;63.68
21011;BME280;10663;42.714;23.274;2022-08-01T02:27:54;94623.91;;;16.95;66.53
21011;BME280;10663;42.714;23.274;2022-08-01T02:29:41;94626.31;;;16.74;68.83
21011;BME280;10663;42.714;23.274;2022-08-01T02:31:17;94629.31;;;16.59;69.69
21011;BME280;10663;42.714;23.274;2022-08-01T02:32:53;94633.63;;;16.46;69.94
21011;BME280;10663;42.714;23.274;2022-08-01T02:34:31;94628.59;;;16.44;68.02
21011;BME280;10663;42.714;23.274;2022-08-01T02:36:05;94633.50;;;16.29;69.85
21011;BME280;10663;42.714;23.274;2022-08-01T02:37:38;94636.19;;;16.15;69.53
21011;BME280;10663;42.714;23.274;2022-08-01T02:39:13;94637.50;;;16.04;71.72
21011;BME280;10663;42.714;23.274;2022-08-01T02:40:46;94631.41;;;15.90;72.28
21011;BME280;10663;42.714;23.274;2022-08-01T02:42:18;94649.97;;;15.95;73.35
21011;BME280;10663;42.714;23.274;2022-08-01T02:43:52;94639.72;;;15.75;73.91
21011;BME280;10663;42.714;23.274;2022-08-01T02:45:25;94642.06;;;15.49;74.19
21011;BME280;10663;42.714;23.274;2022-08-01T02:47:00;94643.63;;;15.22;75.02
21011;BME280;10663;42.714;23.274;2022-08-01T02:48:34;94643.63;;;15.22;75.31
21011;BME280;10663;42.714;23.274;2022-08-01T02:50:10;94627.50;;;15.14;75.19
21011;BME280;10663;42.714;23.274;2022-08-01T02:51:43;94633.91;;;15.13;75.13
21011;BME280;10663;42.714;23.274;2022-08-01T02:53:18;94629.66;;;15.12;75.52
21011;BME280;10663;42.714;23.274;2022-08-01T02:54:53;94632.34;;;15.12;75.70
21011;BME280;10663;42.714;23.274;2022-08-01T02:56:25;94627.59;;;15.09;75.60
21011;BME280;10663;42.714;23.274;2022-08-01T02:58:06;94632.56;;;15.15;75.14
21011;BME280;10663;42.714;23.274;2022-08-01T02:59:40;94627.25;;;15.29;74.54
21011;BME280;10663;42.714;23.274;2022-08-01T03:01:14;94631.19;;;15.45;74.24
21011;BME280;10663;42.714;23.274;2022-08-01T03:02:46;94634.88;;;15.63;73.37
21011;BME280;10663;42.714;23.274;2022-08-01T03:04:19;94633.09;;;15.58;73.70
21011;BME280;10663;42.714;23.274;2022-08-01T03:05:50;94634.88;;;15.63;72.96
21011;BME280;10663;42.714;23.274;2022-08-01T03:07:22;94631.72;;;15.61;72.98
21011;BME280;10663;42.714;23.274;2022-08-01T03:08:55;94629.22;;;15.51;73.46
21011;BME280;10663;42.714;23.274;2022-08-01T03:10:27;94627.72;;;15.31;74.72
21011;BME280;10663;42.714;23.274;2022-08-01T03:12:01;94636.41;;;15.23;74.68
21011;BME280;10663;42.714;23.274;2022-08-01T03:13:33;94630.09;;;15.19;75.82
21011;BME280;10663;42.714;23.274;2022-08-01T03:15:05;94628.41;;;15.09;75.53
21011;BME280;10663;42.714;23.274;2022-08-01T03:16:38;94637.25;;;15.05;75.34
21011;BME280;10663;42.714;23.274;2022-08-01T03:18:10;94637.78;;;15.07;75.81
21011;BME280;10663;42.714;23.274;2022-08-01T03:19:43;94644.34;;;14.95;76.55
21011;BME280;10663;42.714;23.274;2022-08-01T03:21:15;94646.72;;;14.83;76.77
21011;BME280;10663;42.714;23.274;2022-08-01T03:22:48;94646.22;;;14.81;77.00
21011;BME280;10663;42.714;23.274;2022-08-01T03:24:23;94639.81;;;14.96;76.29
21011;BME280;10663;42.714;23.274;2022-08-01T03:25:57;94642.59;;;14.91;76.55
21011;BME280;10663;42.714;23.274;2022-08-01T03:27:28;94632.91;;;14.95;76.18
21011;BME280;10663;42.714;23.274;2022-08-01T03:29:04;94636.00;;;15.02;76.08
21011;BME280;10663;42.714;23.274;2022-08-01T03:30:37;94641.00;;;15.04;75.99
21011;BME280;10663;42.714;23.274;2022-08-01T03:32:09;94640.44;;;15.07;76.00
21011;BME280;10663;42.714;23.274;2022-08-01T03:33:41;94634.53;;;15.10;75.63
21011;BME280;10663;42.714;23.274;2022-08-01T03:35:12;94630.78;;;15.11;75.47
21011;BME280;10663;42.714;23.274;2022-08-01T03:36:51;94637.09;;;15.15;75.25
21011;BME280;10663;42.714;23.274;2022-08-01T03:38:25;94636.22;;;15.19;75.02
21011;BME280;10663;42.714;23.274;2022-08-01T03:41:32;94635.47;;;15.74;72.53
21011;BME280;10663;42.714;23.274;2022-08-01T03:43:11;94630.09;;;15.87;73.48
21011;BME280;10663;42.714;23.274;2022-08-01T03:44:54;94631.41;;;15.90;70.42
21011;BME280;10663;42.714;23.274;2022-08-01T03:46:39;94632.44;;;16.02;71.76
21011;BME280;10663;42.714;23.274;2022-08-01T03:48:16;94626.81;;;16.04;70.40
21011;BME280;10663;42.714;23.274;2022-08-01T03:49:48;94637.84;;;16.25;70.92
21011;BME280;10663;42.714;23.274;2022-08-01T03:51:21;94636.19;;;16.15;70.16
21011;BME280;10663;42.714;23.274;2022-08-01T03:52:54;94628.53;;;16.22;68.57
21011;BME280;10663;42.714;23.274;2022-08-01T03:54:40;94633.59;;;16.24;68.45
21011;BME280;10663;42.714;23.274;2022-08-01T03:56:12;94627.00;;;16.43;68.92
21011;BME280;10663;42.714;23.274;2022-08-01T03:57:45;94636.53;;;16.72;69.13
21011;BME280;10663;42.714;23.274;2022-08-01T03:59:16;94631.28;;;16.89;68.17
21011;BME280;10663;42.714;23.274;2022-08-01T04:00:48;94631.34;;;16.75;68.10
21011;BME280;10663;42.714;23.274;2022-08-01T04:02:19;94640.78;;;16.73;70.00
21011;BME280;10663;42.714;23.274;2022-08-01T04:03:52;94639.44;;;16.62;70.80
21011;BME280;10663;42.714;23.274;2022-08-01T04:05:23;94641.88;;;16.72;70.52
21011;BME280;10663;42.714;23.274;2022-08-01T04:06:54;94637.75;;;16.52;71.15
21011;BME280;10663;42.714;23.274;2022-08-01T04:08:38;94633.88;;;16.22;72.26
21011;BME280;10663;42.714;23.274;2022-08-01T04:10:09;94642.47;;;15.97;72.73
21011;BME280;10663;42.714;23.274;2022-08-01T04:11:40;94648.03;;;15.73;73.04
21011;BME280;10663;42.714;23.274;2022-08-01T04:13:11;94644.66;;;15.54;74.07
21011;BME280;10663;42.714;23.274;2022-08-01T04:14:43;94641.47;;;15.38;74.88
21011;BME280;10663;42.714;23.274;2022-08-01T04:16:14;94655.09;;;15.23;75.46
21011;BME280;10663;42.714;23.274;2022-08-01T04:17:45;94647.59;;;15.25;75.78
21011;BME280;10663;42.714;23.274;2022-08-01T04:19:16;94654.09;;;15.19;76.22
21011;BME280;10663;42.714;23.274;2022-08-01T04:20:47;94657.78;;;15.37;75.55
21011;BME280;10663;42.714;23.274;2022-08-01T04:22:18;94647.00;;;15.42;75.34
21011;BME280;10663;42.714;23.274;2022-08-01T04:23:49;94649.19;;;15.67;74.46
21011;BME280;10663;42.714;23.274;2022-08-01T04:25:29;94646.75;;;15.70;74.42
21011;BME280;10663;42.714;23.274;2022-08-01T04:27:05;94656.03;;;15.87;73.86
21011;BME280;10663;42.714;23.274;2022-08-01T04:28:41;94654.84;;;15.79;74.43
21011;BME280;10663;42.714;23.274;2022-08-01T04:30:14;94658.19;;;15.85;73.85
21011;BME280;10663;42.714;23.274;2022-08-01T04:31:46;94655.53;;;15.98;73.38
21011;BME280;10663;42.714;23.274;2022-08-01T04:33:19;94650.06;;;16.03;73.29
21011;BME280;10663;42.714;23.274;2022-08-01T04:34:50;94651.50;;;16.23;72.99
21011;BME280;10663;42.714;23.274;2022-08-01T04:36:23;94649.78;;;15.91;73.93
21011;BME280;10663;42.714;23.274;2022-08-01T04:37:56;94651.69;;;15.91;74.33
21011;BME280;10663;42.714;23.274;2022-08-01T04:39:31;94655.53;;;15.98;73.45
21011;BME280;10663;42.714;23.274;2022-08-01T04:41:04;94651.75;;;15.99;73.12
21011;BME280;10663;42.714;23.274;2022-08-01T04:42:37;94657.53;;;15.93;73.44
21011;BME280;10663;42.714;23.274;2022-08-01T04:44:08;94665.72;;;15.83;74.15
21011;BME280;10663;42.714;23.274;2022-08-01T04:45:39;94664.34;;;15.71;74.64
21011;BME280;10663;42.714;23.274;2022-08-01T04:47:11;94672.44;;;15.80;74.41
21011;BME280;10663;42.714;23.274;2022-08-01T04:48:42;94665.63;;;16.01;73.30
21011;BME280;10663;42.714;23.274;2022-08-01T04:50:13;94656.34;;;16.21;71.95
21011;BME280;10663;42.714;23.274;2022-08-01T04:51:55;94658.47;;;16.46;71.50
21011;BME280;10663;42.714;23.274;2022-08-01T04:53:30;94662.47;;;16.58;70.83
21011;BME280;10663;42.714;23.274;2022-08-01T04:55:04;94653.97;;;16.69;69.99
21011;BME280;10663;42.714;23.274;2022-08-01T04:56:36;94657.31;;;16.75;70.15
21011;BME280;10663;42.714;23.274;2022-08-01T04:58:09;94654.38;;;16.85;69.61
21011;BME280;10663;42.714;23.274;2022-08-01T04:59:42;94650.38;;;16.96;69.42
21011;BME280;10663;42.714;23.274;2022-08-01T05:01:13;94660.41;;;16.91;69.76
21011;BME280;10663;42.714;23.274;2022-08-01T05:02:44;94660.38;;;17.13;68.37
21011;BME280;10663;42.714;23.274;2022-08-01T05:04:17;94657.69;;;17.13;68.25
21011;BME280;10663;42.714;23.274;2022-08-01T05:05:48;94654.69;;;17.06;69.49
21011;BME280;10663;42.714;23.274;2022-08-01T05:07:18;94654.31;;;16.99;69.28
21011;BME280;10663;42.714;23.274;2022-08-01T05:08:50;94648.59;;;17.14;68.97
21011;BME280;10663;42.714;23.274;2022-08-01T05:10:20;94643.22;;;17.14;68.87
21011;BME280;10663;42.714;23.274;2022-08-01T05:11:51;94641.09;;;17.25;68.68
21011;BME280;10663;42.714;23.274;2022-08-01T05:13:22;94649.38;;;17.45;67.83
21011;BME280;10663;42.714;23.274;2022-08-01T05:14:53;94642.13;;;17.46;67.79
21011;BME280;10663;42.714;23.274;2022-08-01T05:16:24;94640.94;;;17.61;67.47
21011;BME280;10663;42.714;23.274;2022-08-01T05:17:55;94652.22;;;17.80;66.09
21011;BME280;10663;42.714;23.274;2022-08-01T05:19:27;94644.97;;;17.80;66.00
21011;BME280;10663;42.714;23.274;2022-08-01T05:20:57;94650.91;;;17.69;66.74
21011;BME280;10663;42.714;23.274;2022-08-01T05:22:28;94653.31;;;17.79;66.37
21011;BME280;10663;42.714;23.274;2022-08-01T05:23:59;94652.72;;;17.90;65.91
21011;BME280;10663;42.714;23.274;2022-08-01T05:25:30;94643.28;;;17.93;65.37
21011;BME280;10663;42.714;23.274;2022-08-01T05:27:01;94651.19;;;18.15;64.61
21011;BME280;10663;42.714;23.274;2022-08-01T05:28:32;94656.03;;;18.05;65.00
21011;BME280;10663;42.714;23.274;2022-08-01T05:30:04;94649.94;;;18.30;64.31
21011;BME280;10663;42.714;23.274;2022-08-01T05:31:35;94651.22;;;18.41;64.24
21011;BME280;10663;42.714;23.274;2022-08-01T05:33:05;94639.25;;;18.56;63.62
21011;BME280;10663;42.714;23.274;2022-08-01T05:34:36;94644.94;;;18.63;63.36
21011;BME280;10663;42.714;23.274;2022-08-01T05:36:07;94642.75;;;18.74;62.55
21011;BME280;10663;42.714;23.274;2022-08-01T05:37:38;94650.94;;;18.68;62.04
21011;BME280;10663;42.714;23.274;2022-08-01T05:39:09;94654.25;;;18.83;61.97
21011;BME280;10663;42.714;23.274;2022-08-01T05:40:39;94656.13;;;18.91;61.14
21011;BME280;10663;42.714;23.274;2022-08-01T05:42:10;94656.28;;;18.94;60.31
21011;BME280;10663;42.714;23.274;2022-08-01T05:43:41;94665.13;;;18.86;61.35
21011;BME280;10663;42.714;23.274;2022-08-01T05:45:12;94662.13;;;18.88;61.36
21011;BME280;10663;42.714;23.274;2022-08-01T05:46:42;94663.38;;;19.08;60.87
21011;BME280;10663;42.714;23.274;2022-08-01T05:48:14;94656.19;;;19.37;59.97
21011;BME280;10663;42.714;23.274;2022-08-01T05:49:45;94661.56;;;19.37;59.72
21011;BME280;10663;42.714;23.274;2022-08-01T05:51:16;94650.50;;;19.30;60.24
21011;BME280;10663;42.714;23.274;2022-08-01T05:52:47;94651.47;;;19.34;60.28
21011;BME280;10663;42.714;23.274;2022-08-01T05:54:17;94647.63;;;19.44;58.85
21011;BME280;10663;42.714;23.274;2022-08-01T05:55:48;94656.47;;;19.53;59.05
21011;BME280;10663;42.714;23.274;2022-08-01T05:57:19;94642.16;;;19.78;58.41
21011;BME280;10663;42.714;23.274;2022-08-01T05:58:50;94650.72;;;19.72;58.09
21011;BME280;10663;42.714;23.274;2022-08-01T06:00:21;94659.06;;;19.79;57.61
21011;BME280;10663;42.714;23.274;2022-08-01T06:01:52;94649.25;;;19.83;57.54
21011;BME280;10663;42.714;23.274;2022-08-01T06:03:26;94645.66;;;19.70;57.99
21011;BME280;10663;42.714;23.274;2022-08-01T06:05:01;94649.25;;;19.83;57.35
21011;BME280;10663;42.714;23.274;2022-08-01T06:06:32;94645.41;;;19.93;57.29
21011;BME280;10663;42.714;23.274;2022-08-01T06:08:03;94649.34;;;19.95;56.04
21011;BME280;10663;42.714;23.274;2022-08-01T06:09:34;94649.97;;;20.22;54.34
21011;BME280;10663;42.714;23.274;2022-08-01T06:11:05;94660.41;;;20.23;54.03
21011;BME280;10663;42.714;23.274;2022-08-01T06:12:36;94644.59;;;20.22;52.91
21011;BME280;10663;42.714;23.274;2022-08-01T06:14:08;94643.94;;;20.25;53.13
21011;BME280;10663;42.714;23.274;2022-08-01T06:15:39;94652.13;;;20.37;51.42
21011;BME280;10663;42.714;23.274;2022-08-01T06:17:10;94649.59;;;20.32;51.97
21011;BME280;10663;42.714;23.274;2022-08-01T06:18:41;94643.28;;;20.36;51.43
21011;BME280;10663;42.714;23.274;2022-08-01T06:20:11;94655.22;;;20.47;51.23
21011;BME280;10663;42.714;23.274;2022-08-01T06:21:42;94647.00;;;20.44;50.23
21011;BME280;10663;42.714;23.274;2022-08-01T06:23:13;94655.63;;;20.37;51.01
21011;BME280;10663;42.714;23.274;2022-08-01T06:24:46;94661.63;;;20.34;50.68
21011;BME280;10663;42.714;23.274;2022-08-01T06:26:18;94661.47;;;20.31;50.99
21011;BME280;10663;42.714;23.274;2022-08-01T06:27:49;94665.25;;;20.38;50.58
21011;BME280;10663;42.714;23.274;2022-08-01T06:29:20;94648.84;;;20.52;50.36
21011;BME280;10663;42.714;23.274;2022-08-01T06:30:51;94650.63;;;20.69;49.86
21011;BME280;10663;42.714;23.274;2022-08-01T06:32:22;94650.44;;;20.53;48.80
21011;BME280;10663;42.714;23.274;2022-08-01T06:33:53;94639.66;;;20.53;49.23
21011;BME280;10663;42.714;23.274;2022-08-01T06:35:24;94644.25;;;20.73;49.53
21011;BME280;10663;42.714;23.274;2022-08-01T06:36:55;94633.66;;;20.89;48.34
21011;BME280;10663;42.714;23.274;2022-08-01T06:38:25;94643.47;;;21.06;47.20
21011;BME280;10663;42.714;23.274;2022-08-01T06:40:08;94622.34;;;20.96;47.21
21011;BME280;10663;42.714;23.274;2022-08-01T06:41:39;94638.50;;;20.96;47.26
21011;BME280;10663;42.714;23.274;2022-08-01T06:43:12;94637.44;;;21.09;47.28
21011;BME280;10663;42.714;23.274;2022-08-01T06:44:43;94628.47;;;21.17;47.64
21011;BME280;10663;42.714;23.274;2022-08-01T06:46:13;94620.69;;;21.36;47.53
21011;BME280;10663;42.714;23.274;2022-08-01T06:47:44;94623.91;;;20.97;48.63
21011;BME280;10663;42.714;23.274;2022-08-01T06:49:16;94623.22;;;20.87;49.40
21011;BME280;10663;42.714;23.274;2022-08-01T06:50:46;94632.69;;;21.06;48.72
21011;BME280;10663;42.714;23.274;2022-08-01T06:52:17;94613.41;;;21.37;47.66
21011;BME280;10663;42.714;23.274;2022-08-01T06:53:48;94617.34;;;21.39;47.99
21011;BME280;10663;42.714;23.274;2022-08-01T06:55:19;94619.94;;;21.48;46.47
21011;BME280;10663;42.714;23.274;2022-08-01T06:56:50;94625.59;;;21.22;47.83
21011;BME280;10663;42.714;23.274;2022-08-01T06:58:21;94609.25;;;21.51;46.81
21011;BME280;10663;42.714;23.274;2022-08-01T06:59:52;94614.72;;;21.31;47.01
21011;BME280;10663;42.714;23.274;2022-08-01T07:01:23;94625.31;;;21.60;46.29
21011;BME280;10663;42.714;23.274;2022-08-01T07:02:56;94612.63;;;21.60;46.30
21011;BME280;10663;42.714;23.274;2022-08-01T07:04:27;94606.22;;;21.53;46.44
21011;BME280;10663;42.714;23.274;2022-08-01T07:05:57;94603.41;;;21.49;46.42
21011;BME280;10663;42.714;23.274;2022-08-01T07:07:28;94606.78;;;21.46;47.41
21011;BME280;10663;42.714;23.274;2022-08-01T07:08:59;94629.81;;;21.56;47.10
21011;BME280;10663;42.714;23.274;2022-08-01T07:10:32;94662.69;;;21.49;47.47
21011;BME280;10663;42.714;23.274;2022-08-01T07:12:03;94621.59;;;21.28;47.41
21011;BME280;10663;42.714;23.274;2022-08-01T07:13:34;94613.84;;;21.51;46.68
21011;BME280;10663;42.714;23.274;2022-08-01T07:15:05;94621.47;;;21.49;46.68
21011;BME280;10663;42.714;23.274;2022-08-01T07:16:36;94622.28;;;21.49;46.90
21011;BME280;10663;42.714;23.274;2022-08-01T07:18:07;94612.06;;;21.43;46.81
21011;BME280;10663;42.714;23.274;2022-08-01T07:19:38;94628.72;;;21.57;46.41
21011;BME280;10663;42.714;23.274;2022-08-01T07:21:09;94622.97;;;21.46;47.06
21011;BME280;10663;42.714;23.274;2022-08-01T07:22:40;94642.50;;;21.55;46.21
21011;BME280;10663;42.714;23.274;2022-08-01T07:24:13;94622.16;;;21.46;46.65
21011;BME280;10663;42.714;23.274;2022-08-01T07:25:45;94646.97;;;21.51;46.62
21011;BME280;10663;42.714;23.274;2022-08-01T07:27:15;94638.00;;;21.59;46.71
21011;BME280;10663;42.714;23.274;2022-08-01T07:28:46;94636.09;;;21.48;46.16
21011;BME280;10663;42.714;23.274;2022-08-01T07:30:17;94674.59;;;21.36;46.13
21011;BME280;10663;42.714;23.274;2022-08-01T07:31:48;94634.75;;;21.54;46.06
21011;BME280;10663;42.714;23.274;2022-08-01T07:33:19;94646.31;;;21.54;46.09
21011;BME280;10663;42.714;23.274;2022-08-01T07:34:49;94636.22;;;21.51;46.09
21011;BME280;10663;42.714;23.274;2022-08-01T07:36:20;94625.13;;;21.65;46.17
21011;BME280;10663;42.714;23.274;2022-08-01T07:37:51;94628.94;;;21.64;46.46
21011;BME280;10663;42.714;23.274;2022-08-01T07:39:23;94635.34;;;21.72;45.84
21011;BME280;10663;42.714;23.274;2022-08-01T07:40:54;94623.66;;;21.55;46.21
21011;BME280;10663;42.714;23.274;2022-08-01T07:42:25;94637.69;;;21.73;46.51
21011;BME280;10663;42.714;23.274;2022-08-01T07:43:56;94612.31;;;21.86;46.22
21011;BME280;10663;42.714;23.274;2022-08-01T07:45:27;94647.13;;;21.79;45.61
21011;BME280;10663;42.714;23.274;2022-08-01T07:46:58;94615.56;;;21.80;46.06
21011;BME280;10663;42.714;23.274;2022-08-01T07:48:29;94614.66;;;21.63;46.66
21011;BME280;10663;42.714;23.274;2022-08-01T07:50:00;94617.56;;;21.58;46.92
21011;BME280;10663;42.714;23.274;2022-08-01T07:51:31;94612.41;;;21.78;46.59
21011;BME280;10663;42.714;23.274;2022-08-01T07:53:03;94611.75;;;21.81;46.81
21011;BME280;10663;42.714;23.274;2022-08-01T07:54:34;94631.19;;;21.74;46.71
21011;BME280;10663;42.714;23.274;2022-08-01T07:56:05;94626.69;;;21.90;46.40
21011;BME280;10663;42.714;23.274;2022-08-01T07:57:36;94644.53;;;21.71;46.19
21011;BME280;10663;42.714;23.274;2022-08-01T07:59:07;94633.06;;;21.86;46.50
21011;BME280;10663;42.714;23.274;2022-08-01T08:00:38;94630.41;;;21.98;46.48
21011;BME280;10663;42.714;23.274;2022-08-01T08:02:09;94624.88;;;21.94;46.49
21011;BME280;10663;42.714;23.274;2022-08-01T08:03:40;94621.09;;;22.08;46.04
21011;BME280;10663;42.714;23.274;2022-08-01T08:05:11;94629.84;;;22.29;45.63
21011;BME280;10663;42.714;23.274;2022-08-01T08:06:42;94634.00;;;22.26;45.20
21011;BME280;10663;42.714;23.274;2022-08-01T08:08:13;94641.97;;;22.35;45.29
21011;BME280;10663;42.714;23.274;2022-08-01T08:09:46;94625.97;;;22.42;44.85
21011;BME280;10663;42.714;23.274;2022-08-01T08:11:17;94634.31;;;22.37;44.84
21011;BME280;10663;42.714;23.274;2022-08-01T08:12:48;94631.41;;;22.30;45.04
21011;BME280;10663;42.714;23.274;2022-08-01T08:14:19;94620.63;;;22.30;44.78